Logo AVAMET
Benvolgut visitant, si us plau, ingressa Recuperar contrasenya
AVAMET paisatges

Castelló de la Plana Port

Dades diàries. Acumulats / Últims 30 dies disponibles

Data Temperatura (°C) Humitat rel. (%) Pressió rel. (hPa) Vent (km/h) Precipitació
Mínima Mitjana Màxima Amplitud
tèrmica
Mínima Mitjana Màxima Mínima Mitjana Màxima Predom. Mitjana Ràfega
màxima
Total
(mm)
Índex-n
Mínima Mitjana Màxima Mínima Mitjana Màxima n
0 a 1
P0 max
mm 5'
Dades mensuals acumulades fins l'últim dia disponible
09/2020 18,7 21,3 22,9 24,2 24,6 26,1 27,4 8,7   8,9 57,9 1,8
Dades anuals acumulades fins l'últim dia disponible
2020 5,3 17,3 26,7 19,9 10,3 22,3 29,8 24,5   11,4 104,6 352,4
Últims 30 dies disponibles
17-09-2020 22,2     23,6     26,0 3,8 WNW 5,6 19,3 0,0
16-09-2020 22,2     25,1     27,4 5,2 WNW 6,1 22,5 0,0
15-09-2020 22,9     25,3     26,8 3,9 SE 11,6 30,6 0,0
14-09-2020 21,9     24,8     26,7 4,8 WNW 10,0 24,1 0,0
13-09-2020 22,4     25,2     27,4 5,0 SE 9,7 25,7 0,0
12-09-2020 21,0     24,6     26,6 5,6 ESE 10,9 29,0 0,0
11-09-2020 20,8     24,6     26,6 5,8 W 6,0 25,7 0,0
10-09-2020 20,8     23,7     25,1 4,3 W 8,5 30,6 0,0
09-09-2020 20,8     22,9     24,6 3,8 WNW 8,2 30,6 0,2
08-09-2020 18,7     23,2     25,9 7,2 NE 11,1 57,9 0,0
07-09-2020 22,1     23,4     25,4 3,3 ENE 17,7 51,5 0,0
06-09-2020 21,7     24,9     26,4 4,7 SE 7,7 29,0 0,0
05-09-2020 21,1     24,4     25,9 4,8 WNW 7,4 24,1 0,0
04-09-2020 21,9     24,7     26,3 4,4 W 8,2 32,2 0,0
03-09-2020 21,3     24,6     26,2 4,9 WNW 8,0 32,2 0,0
02-09-2020 19,8     24,0     25,6 5,8 WNW 10,3 30,6 0,0
01-09-2020 20,4     23,2     25,1 4,7 WNW 4,3 38,6 1,6
30-08-2020 19,5     22,5     24,5 5,0 ESE 5,3 43,5 0,0
29-08-2020 20,8     23,4     27,2 6,4 NW 7,2 40,2 2,0
28-08-2020 25,9     27,4     28,8 2,9 NE 10,1 37,0 0,0
27-08-2020 25,3     27,7     29,0 3,7 ENE 6,0 22,5 0,0
26-08-2020 25,8     27,6     28,9 3,1 ENE 7,1 27,4 0,0
25-08-2020 25,3     27,1     28,3 3,0 SE 9,5 37,0 0,0
24-08-2020 24,9     26,8     27,9 3,0 E 7,6 37,0 0,0
23-08-2020 24,6     27,0     28,2 3,6 NE 8,7 30,6 0,2
22-08-2020 25,9     27,9     29,3 3,4 ENE 8,2 30,6 0,0
21-08-2020 24,4     27,4     28,9 4,5 ESE 7,2 24,1 0,0
20-08-2020 23,6     27,2     29,1 5,5 ENE 6,8 19,3 0,0
19-08-2020 24,2     26,8     28,3 4,1 WNW 8,2 35,4 0,0
18-08-2020 23,6     26,9     29,2 5,6 ENE 4,5 25,7 0,0
Últims 13 mesos disponibles
07/2019 22,3 24,1 26,2 26,3 25,8 27,7 29,6 7,3 NE 12,1 69,2 8,6
06/2019 14,2 19,5 23,0 21,6 19,8 23,3 28,9 14,7 NE 13,4 74,0 0,2
05/2019 11,7 15,6 18,3 18,0 16,7 20,0 27,4 15,7 NE 13,6 70,8 6,6
04/2019 9,7 13,0 14,9 15,3 14,4 17,5 22,1 12,4 NNE 19,2 78,9 16,2
03/2019 8,6 10,9 13,5 14,2 14,4 16,7 23,9 15,3 WNW 12,1 64,4 6,0
02/2019 6,1 8,6 12,1 12,0 12,7 14,7 18,7 12,6 WNW 10,9 93,3 0,4
01/2019 4,4 7,9 10,5 12,0 12,8 14,8 16,8 12,4 W 12,3 90,1 1,4
12/2018 5,9 10,4 13,5 13,9 13,3 16,9 20,1 14,2 WNW 8,5 75,6 4,0
11/2018 9,3 13,1 17,8 15,9 16,5 18,9 21,1 11,8 W 14,5 61,2 62,4
10/2018 10,1 16,8 20,7 19,8 15,4 22,3 26,3 16,2 WNW 14,4 80,5 89,6
09/2018 18,7 21,6 23,9 24,5 24,2 26,5 28,9 10,2 W 10,9 56,3 41,6
08/2018 21,0 24,0 27,6 26,5 25,8 28,4 32,8 11,8 ENE 11,3 85,3 7,2
07/2018 20,8 23,8 25,6 26,1 26,0 27,6 31,1 10,3 NE 11,1 53,1
Tots els anys disponibles
2017 5,9 12,5 20,8 15,9 11,6 18,8 24,7 18,8 12,2 93,3 12,2
2016 5,4 16,0 26,2 18,6 11,6 20,7 31,4 26,0 11,5 82,1 244,8
Temperatura (°C)
Humitat relativa (%)
Velocitat del vent i ràfega màxima (km/h)
Direcció del vent (°)
Pressió (hPa)
Precipitació (mm)
Nota sobre les dades: s'avisa a l'usuari de la provisionalitat i no oficialitat d'aquestes dades
Logo AVAMET blanc
Web allotjada a Sollutia
Llicència de Creative CommonsLa web d'AVAMET i els seus continguts estan subjectes a una llicència de
Reconeixement - No Comercial - Compartir igual
Últimes estacions: Castelló de la Plana - Grup Sant Agustí (Soci), Llíria - Urb. San Gerardo (Soci), Xàtiva - Ausiàs March (Soci), Gandia - Parpalló/Borrell (AVAMET), Olocau del Rei - La Magdalena (Electra/Soci), Ademuz - IES Ademuz (Soci), La Jana (Ajuntament Soci), Villahermosa del Río - la Cañada (Soci), Benassal (Ajuntament Soci), la Torre de les Maçanes - la Canaleta (Soci) - - -